sensor_id;sensor_type;location;lat;lon;timestamp;temperature;humidity
7606;DHT22;3844;53.360;9.738;2023-02-15T00:01:33;1.80;95.70
7606;DHT22;3844;53.360;9.738;2023-02-15T00:03:35;1.80;95.70
7606;DHT22;3844;53.360;9.738;2023-02-15T00:05:36;1.80;95.70
7606;DHT22;3844;53.360;9.738;2023-02-15T00:07:36;1.80;95.70
7606;DHT22;3844;53.360;9.738;2023-02-15T00:09:37;1.90;95.70
7606;DHT22;3844;53.360;9.738;2023-02-15T00:11:38;1.90;95.70
7606;DHT22;3844;53.360;9.738;2023-02-15T00:13:51;1.90;95.70
7606;DHT22;3844;53.360;9.738;2023-02-15T00:15:52;2.00;95.70
7606;DHT22;3844;53.360;9.738;2023-02-15T00:17:53;2.00;95.70
7606;DHT22;3844;53.360;9.738;2023-02-15T00:19:53;2.00;95.70
7606;DHT22;3844;53.360;9.738;2023-02-15T00:21:54;2.10;95.70
7606;DHT22;3844;53.360;9.738;2023-02-15T00:23:57;2.10;95.70
7606;DHT22;3844;53.360;9.738;2023-02-15T00:26:24;2.10;95.70
7606;DHT22;3844;53.360;9.738;2023-02-15T00:28:25;2.20;95.70
7606;DHT22;3844;53.360;9.738;2023-02-15T00:30:25;2.20;95.70
7606;DHT22;3844;53.360;9.738;2023-02-15T00:32:26;2.30;95.70
7606;DHT22;3844;53.360;9.738;2023-02-15T00:34:27;2.30;95.70
7606;DHT22;3844;53.360;9.738;2023-02-15T00:36:28;2.40;95.70
7606;DHT22;3844;53.360;9.738;2023-02-15T00:38:29;2.40;95.70
7606;DHT22;3844;53.360;9.738;2023-02-15T00:40:31;2.40;95.70
7606;DHT22;3844;53.360;9.738;2023-02-15T00:42:32;2.50;95.70
7606;DHT22;3844;53.360;9.738;2023-02-15T00:44:33;2.50;95.70
7606;DHT22;3844;53.360;9.738;2023-02-15T00:46:34;2.50;95.70
7606;DHT22;3844;53.360;9.738;2023-02-15T00:48:36;2.50;95.70
7606;DHT22;3844;53.360;9.738;2023-02-15T00:50:38;2.60;95.70
7606;DHT22;3844;53.360;9.738;2023-02-15T00:52:39;2.60;95.70
7606;DHT22;3844;53.360;9.738;2023-02-15T00:56:40;2.60;95.70
7606;DHT22;3844;53.360;9.738;2023-02-15T00:58:41;2.60;95.70
7606;DHT22;3844;53.360;9.738;2023-02-15T01:00:44;2.60;95.70
7606;DHT22;3844;53.360;9.738;2023-02-15T01:04:46;2.60;95.70
7606;DHT22;3844;53.360;9.738;2023-02-15T01:06:47;2.60;95.70
7606;DHT22;3844;53.360;9.738;2023-02-15T01:08:48;2.60;95.70
7606;DHT22;3844;53.360;9.738;2023-02-15T01:10:48;2.60;95.70
7606;DHT22;3844;53.360;9.738;2023-02-15T01:12:51;2.60;95.70
7606;DHT22;3844;53.360;9.738;2023-02-15T01:14:51;2.50;95.70
7606;DHT22;3844;53.360;9.738;2023-02-15T01:16:52;2.50;95.70
7606;DHT22;3844;53.360;9.738;2023-02-15T01:18:53;2.50;95.70
7606;DHT22;3844;53.360;9.738;2023-02-15T01:20:57;2.50;95.70
7606;DHT22;3844;53.360;9.738;2023-02-15T01:22:58;2.50;95.70
7606;DHT22;3844;53.360;9.738;2023-02-15T01:24:59;2.50;95.70
7606;DHT22;3844;53.360;9.738;2023-02-15T01:27:02;2.50;95.70
7606;DHT22;3844;53.360;9.738;2023-02-15T01:29:02;2.50;95.70
7606;DHT22;3844;53.360;9.738;2023-02-15T01:31:08;2.50;95.70
7606;DHT22;3844;53.360;9.738;2023-02-15T01:33:10;2.50;95.70
7606;DHT22;3844;53.360;9.738;2023-02-15T01:35:17;2.50;95.70
7606;DHT22;3844;53.360;9.738;2023-02-15T01:37:18;2.50;95.70
7606;DHT22;3844;53.360;9.738;2023-02-15T01:39:19;2.50;95.70
7606;DHT22;3844;53.360;9.738;2023-02-15T01:41:19;2.50;95.70
7606;DHT22;3844;53.360;9.738;2023-02-15T01:43:20;2.50;95.70
7606;DHT22;3844;53.360;9.738;2023-02-15T01:45:30;2.50;95.70
7606;DHT22;3844;53.360;9.738;2023-02-15T01:47:44;2.50;95.70
7606;DHT22;3844;53.360;9.738;2023-02-15T01:49:46;2.50;95.70
7606;DHT22;3844;53.360;9.738;2023-02-15T01:51:50;2.50;95.70
7606;DHT22;3844;53.360;9.738;2023-02-15T01:53:59;2.40;95.70
7606;DHT22;3844;53.360;9.738;2023-02-15T01:58:02;2.40;95.70
7606;DHT22;3844;53.360;9.738;2023-02-15T02:00:06;2.40;95.70
7606;DHT22;3844;53.360;9.738;2023-02-15T02:02:10;2.50;95.70
7606;DHT22;3844;53.360;9.738;2023-02-15T02:04:30;2.40;95.70
7606;DHT22;3844;53.360;9.738;2023-02-15T02:06:33;2.40;95.70
7606;DHT22;3844;53.360;9.738;2023-02-15T02:08:34;2.40;95.70
7606;DHT22;3844;53.360;9.738;2023-02-15T02:10:36;2.40;95.70
7606;DHT22;3844;53.360;9.738;2023-02-15T02:12:37;2.40;95.70
7606;DHT22;3844;53.360;9.738;2023-02-15T02:14:39;2.40;95.70
7606;DHT22;3844;53.360;9.738;2023-02-15T02:17:40;2.40;95.70
7606;DHT22;3844;53.360;9.738;2023-02-15T02:19:46;2.40;95.70
7606;DHT22;3844;53.360;9.738;2023-02-15T02:33:27;2.20;95.70
7606;DHT22;3844;53.360;9.738;2023-02-15T02:40:17;2.00;95.70
7606;DHT22;3844;53.360;9.738;2023-02-15T02:42:44;2.00;95.70
7606;DHT22;3844;53.360;9.738;2023-02-15T02:45:13;2.00;95.70
7606;DHT22;3844;53.360;9.738;2023-02-15T02:47:29;1.90;95.70
7606;DHT22;3844;53.360;9.738;2023-02-15T02:49:39;1.80;95.70
7606;DHT22;3844;53.360;9.738;2023-02-15T02:53:41;1.70;95.70
7606;DHT22;3844;53.360;9.738;2023-02-15T03:00:09;1.60;95.70
7606;DHT22;3844;53.360;9.738;2023-02-15T03:02:19;1.60;95.70
7606;DHT22;3844;53.360;9.738;2023-02-15T03:04:24;1.60;95.70
7606;DHT22;3844;53.360;9.738;2023-02-15T03:08:42;1.50;95.70
7606;DHT22;3844;53.360;9.738;2023-02-15T03:10:44;1.50;95.70
7606;DHT22;3844;53.360;9.738;2023-02-15T03:12:44;1.50;95.70
7606;DHT22;3844;53.360;9.738;2023-02-15T03:14:49;1.50;95.70
7606;DHT22;3844;53.360;9.738;2023-02-15T03:16:51;1.40;95.70
7606;DHT22;3844;53.360;9.738;2023-02-15T03:19:12;1.40;95.70
7606;DHT22;3844;53.360;9.738;2023-02-15T03:21:14;1.40;95.70
7606;DHT22;3844;53.360;9.738;2023-02-15T03:23:24;1.40;95.70
7606;DHT22;3844;53.360;9.738;2023-02-15T03:27:39;1.30;95.70
7606;DHT22;3844;53.360;9.738;2023-02-15T03:29:40;1.30;95.70
7606;DHT22;3844;53.360;9.738;2023-02-15T03:31:44;1.30;95.70
7606;DHT22;3844;53.360;9.738;2023-02-15T03:33:57;1.30;95.70
7606;DHT22;3844;53.360;9.738;2023-02-15T03:36:11;1.30;95.70
7606;DHT22;3844;53.360;9.738;2023-02-15T03:38:22;1.30;95.70
7606;DHT22;3844;53.360;9.738;2023-02-15T03:40:29;1.20;95.70
7606;DHT22;3844;53.360;9.738;2023-02-15T03:42:55;1.20;95.70
7606;DHT22;3844;53.360;9.738;2023-02-15T03:45:05;1.10;95.70
7606;DHT22;3844;53.360;9.738;2023-02-15T03:47:10;1.10;95.70
7606;DHT22;3844;53.360;9.738;2023-02-15T03:51:25;1.10;95.70
7606;DHT22;3844;53.360;9.738;2023-02-15T03:53:37;1.00;95.70
7606;DHT22;3844;53.360;9.738;2023-02-15T03:55:39;1.00;95.70
7606;DHT22;3844;53.360;9.738;2023-02-15T04:00:03;1.00;95.60
7606;DHT22;3844;53.360;9.738;2023-02-15T04:02:29;1.00;95.70
7606;DHT22;3844;53.360;9.738;2023-02-15T04:04:34;1.00;95.60
7606;DHT22;3844;53.360;9.738;2023-02-15T04:06:35;1.00;95.60
7606;DHT22;3844;53.360;9.738;2023-02-15T04:08:36;1.00;95.50
7606;DHT22;3844;53.360;9.738;2023-02-15T04:14:57;0.90;95.50
7606;DHT22;3844;53.360;9.738;2023-02-15T04:17:18;0.90;95.50
7606;DHT22;3844;53.360;9.738;2023-02-15T04:21:39;0.80;95.30
7606;DHT22;3844;53.360;9.738;2023-02-15T04:23:58;0.90;95.30
7606;DHT22;3844;53.360;9.738;2023-02-15T04:26:18;0.90;95.20
7606;DHT22;3844;53.360;9.738;2023-02-15T04:28:18;0.80;95.30
7606;DHT22;3844;53.360;9.738;2023-02-15T04:30:21;0.80;95.30
7606;DHT22;3844;53.360;9.738;2023-02-15T04:32:22;0.80;95.30
7606;DHT22;3844;53.360;9.738;2023-02-15T04:34:24;0.80;95.20
7606;DHT22;3844;53.360;9.738;2023-02-15T04:36:25;0.80;95.20
7606;DHT22;3844;53.360;9.738;2023-02-15T04:38:26;0.80;95.30
7606;DHT22;3844;53.360;9.738;2023-02-15T04:40:28;0.80;95.30
7606;DHT22;3844;53.360;9.738;2023-02-15T04:42:29;0.80;95.10
7606;DHT22;3844;53.360;9.738;2023-02-15T04:44:29;0.80;95.20
7606;DHT22;3844;53.360;9.738;2023-02-15T04:46:30;0.70;95.30
7606;DHT22;3844;53.360;9.738;2023-02-15T04:48:31;0.70;95.40
7606;DHT22;3844;53.360;9.738;2023-02-15T04:54:35;0.60;95.40
7606;DHT22;3844;53.360;9.738;2023-02-15T04:56:35;0.60;95.40
7606;DHT22;3844;53.360;9.738;2023-02-15T04:58:38;0.60;95.30
7606;DHT22;3844;53.360;9.738;2023-02-15T05:00:41;0.50;95.20
7606;DHT22;3844;53.360;9.738;2023-02-15T05:02:42;0.50;95.20
7606;DHT22;3844;53.360;9.738;2023-02-15T05:04:42;0.50;95.20
7606;DHT22;3844;53.360;9.738;2023-02-15T05:06:43;0.50;95.20
7606;DHT22;3844;53.360;9.738;2023-02-15T05:08:44;0.50;95.10
7606;DHT22;3844;53.360;9.738;2023-02-15T05:10:44;0.50;95.20
7606;DHT22;3844;53.360;9.738;2023-02-15T05:12:47;0.40;95.00
7606;DHT22;3844;53.360;9.738;2023-02-15T05:18:50;0.40;94.90
7606;DHT22;3844;53.360;9.738;2023-02-15T05:20:54;0.40;94.80
7606;DHT22;3844;53.360;9.738;2023-02-15T05:22:54;0.40;95.00
7606;DHT22;3844;53.360;9.738;2023-02-15T05:24:56;0.40;94.80
7606;DHT22;3844;53.360;9.738;2023-02-15T05:27:15;0.50;94.70
7606;DHT22;3844;53.360;9.738;2023-02-15T05:29:34;0.50;94.80
7606;DHT22;3844;53.360;9.738;2023-02-15T05:31:35;0.40;95.00
7606;DHT22;3844;53.360;9.738;2023-02-15T05:33:37;0.40;94.80
7606;DHT22;3844;53.360;9.738;2023-02-15T05:35:37;0.40;94.60
7606;DHT22;3844;53.360;9.738;2023-02-15T05:39:39;0.50;94.60
7606;DHT22;3844;53.360;9.738;2023-02-15T05:45:46;0.50;94.80
7606;DHT22;3844;53.360;9.738;2023-02-15T05:47:47;0.40;95.50
7606;DHT22;3844;53.360;9.738;2023-02-15T05:49:47;0.40;95.40
7606;DHT22;3844;53.360;9.738;2023-02-15T05:51:48;0.30;95.30
7606;DHT22;3844;53.360;9.738;2023-02-15T05:53:49;0.30;95.30
7606;DHT22;3844;53.360;9.738;2023-02-15T05:55:49;0.20;95.60
7606;DHT22;3844;53.360;9.738;2023-02-15T05:57:50;0.20;95.30
7606;DHT22;3844;53.360;9.738;2023-02-15T05:59:51;0.10;95.40
7606;DHT22;3844;53.360;9.738;2023-02-15T06:01:51;0.10;95.30
7606;DHT22;3844;53.360;9.738;2023-02-15T06:03:55;0.10;95.10
7606;DHT22;3844;53.360;9.738;2023-02-15T06:05:57;0.10;95.00
7606;DHT22;3844;53.360;9.738;2023-02-15T06:07:59;0.10;94.90
7606;DHT22;3844;53.360;9.738;2023-02-15T06:10:00;0.10;94.80
7606;DHT22;3844;53.360;9.738;2023-02-15T06:12:00;0.10;94.70
7606;DHT22;3844;53.360;9.738;2023-02-15T06:14:02;0.10;94.70
7606;DHT22;3844;53.360;9.738;2023-02-15T06:16:03;0.10;94.70
7606;DHT22;3844;53.360;9.738;2023-02-15T06:18:04;0.10;94.80
7606;DHT22;3844;53.360;9.738;2023-02-15T06:20:05;0.10;94.70
7606;DHT22;3844;53.360;9.738;2023-02-15T06:24:09;0.10;94.70
7606;DHT22;3844;53.360;9.738;2023-02-15T06:26:11;0.10;94.60
7606;DHT22;3844;53.360;9.738;2023-02-15T06:28:12;0.10;94.60
7606;DHT22;3844;53.360;9.738;2023-02-15T06:30:13;0.10;94.50
7606;DHT22;3844;53.360;9.738;2023-02-15T06:32:14;0.10;94.50
7606;DHT22;3844;53.360;9.738;2023-02-15T06:34:14;0.20;94.40
7606;DHT22;3844;53.360;9.738;2023-02-15T06:36:15;0.20;94.40
7606;DHT22;3844;53.360;9.738;2023-02-15T06:38:16;0.20;94.40
7606;DHT22;3844;53.360;9.738;2023-02-15T06:40:18;0.20;94.40
7606;DHT22;3844;53.360;9.738;2023-02-15T06:42:18;0.20;94.40
7606;DHT22;3844;53.360;9.738;2023-02-15T06:44:19;0.20;94.20
7606;DHT22;3844;53.360;9.738;2023-02-15T06:46:20;0.20;94.20
7606;DHT22;3844;53.360;9.738;2023-02-15T06:48:21;0.30;94.20
7606;DHT22;3844;53.360;9.738;2023-02-15T06:50:23;0.30;94.20
7606;DHT22;3844;53.360;9.738;2023-02-15T06:52:24;0.30;94.20
7606;DHT22;3844;53.360;9.738;2023-02-15T06:54:26;0.30;94.10
7606;DHT22;3844;53.360;9.738;2023-02-15T06:56:29;0.40;94.10
7606;DHT22;3844;53.360;9.738;2023-02-15T06:58:30;0.40;94.10
7606;DHT22;3844;53.360;9.738;2023-02-15T07:00:32;0.40;94.30
7606;DHT22;3844;53.360;9.738;2023-02-15T07:02:33;0.40;94.10
7606;DHT22;3844;53.360;9.738;2023-02-15T07:04:34;0.40;94.00
7606;DHT22;3844;53.360;9.738;2023-02-15T07:06:34;0.50;93.90
7606;DHT22;3844;53.360;9.738;2023-02-15T07:08:36;0.50;94.10
7606;DHT22;3844;53.360;9.738;2023-02-15T07:10:36;0.60;94.00
7606;DHT22;3844;53.360;9.738;2023-02-15T07:16:42;0.60;94.00
7606;DHT22;3844;53.360;9.738;2023-02-15T07:18:43;0.60;94.00
7606;DHT22;3844;53.360;9.738;2023-02-15T07:20:44;0.70;93.90
7606;DHT22;3844;53.360;9.738;2023-02-15T07:22:45;0.70;93.80
7606;DHT22;3844;53.360;9.738;2023-02-15T07:26:47;0.80;94.00
7606;DHT22;3844;53.360;9.738;2023-02-15T07:30:49;0.80;93.90
7606;DHT22;3844;53.360;9.738;2023-02-15T07:32:50;0.90;93.80
7606;DHT22;3844;53.360;9.738;2023-02-15T07:35:09;0.90;94.00
7606;DHT22;3844;53.360;9.738;2023-02-15T07:37:10;0.90;94.20
7606;DHT22;3844;53.360;9.738;2023-02-15T07:39:11;0.90;94.20
7606;DHT22;3844;53.360;9.738;2023-02-15T07:41:13;0.90;94.20
7606;DHT22;3844;53.360;9.738;2023-02-15T07:43:14;0.90;94.30
7606;DHT22;3844;53.360;9.738;2023-02-15T07:45:15;0.90;94.10
7606;DHT22;3844;53.360;9.738;2023-02-15T07:47:15;1.00;93.90
7606;DHT22;3844;53.360;9.738;2023-02-15T07:49:16;1.00;94.00
7606;DHT22;3844;53.360;9.738;2023-02-15T07:51:17;1.10;93.70
7606;DHT22;3844;53.360;9.738;2023-02-15T07:53:17;1.10;94.20
7606;DHT22;3844;53.360;9.738;2023-02-15T07:55:18;1.10;93.80
7606;DHT22;3844;53.360;9.738;2023-02-15T07:57:19;1.20;93.70
7606;DHT22;3844;53.360;9.738;2023-02-15T07:59:20;1.30;93.80
7606;DHT22;3844;53.360;9.738;2023-02-15T08:01:30;1.30;93.80
7606;DHT22;3844;53.360;9.738;2023-02-15T08:03:31;1.30;93.70
7606;DHT22;3844;53.360;9.738;2023-02-15T08:05:32;1.40;94.00
7606;DHT22;3844;53.360;9.738;2023-02-15T08:07:33;1.30;93.90
7606;DHT22;3844;53.360;9.738;2023-02-15T08:09:34;1.30;94.20
7606;DHT22;3844;53.360;9.738;2023-02-15T08:11:36;1.40;94.10
7606;DHT22;3844;53.360;9.738;2023-02-15T08:13:37;1.40;94.00
7606;DHT22;3844;53.360;9.738;2023-02-15T08:15:53;1.30;94.30
7606;DHT22;3844;53.360;9.738;2023-02-15T08:17:54;1.30;94.10
7606;DHT22;3844;53.360;9.738;2023-02-15T08:19:55;1.40;94.00
7606;DHT22;3844;53.360;9.738;2023-02-15T08:21:58;1.40;93.90
7606;DHT22;3844;53.360;9.738;2023-02-15T08:23:59;1.50;93.90
7606;DHT22;3844;53.360;9.738;2023-02-15T08:26:01;1.50;94.00
7606;DHT22;3844;53.360;9.738;2023-02-15T08:28:02;1.50;93.90
7606;DHT22;3844;53.360;9.738;2023-02-15T08:30:03;1.50;94.20
7606;DHT22;3844;53.360;9.738;2023-02-15T08:32:10;1.50;94.30
7606;DHT22;3844;53.360;9.738;2023-02-15T08:34:13;1.50;94.20
7606;DHT22;3844;53.360;9.738;2023-02-15T08:36:16;1.50;93.90
7606;DHT22;3844;53.360;9.738;2023-02-15T08:38:17;1.60;93.60
7606;DHT22;3844;53.360;9.738;2023-02-15T08:40:18;1.60;93.70
7606;DHT22;3844;53.360;9.738;2023-02-15T08:42:19;1.70;93.60
7606;DHT22;3844;53.360;9.738;2023-02-15T08:44:21;1.80;93.50
7606;DHT22;3844;53.360;9.738;2023-02-15T08:46:24;1.80;93.60
7606;DHT22;3844;53.360;9.738;2023-02-15T08:48:25;1.90;93.50
7606;DHT22;3844;53.360;9.738;2023-02-15T08:50:26;1.90;93.70
7606;DHT22;3844;53.360;9.738;2023-02-15T08:52:27;2.00;93.50
7606;DHT22;3844;53.360;9.738;2023-02-15T08:56:31;2.10;93.30
7606;DHT22;3844;53.360;9.738;2023-02-15T08:58:33;2.20;93.70
7606;DHT22;3844;53.360;9.738;2023-02-15T09:02:35;2.30;93.10
7606;DHT22;3844;53.360;9.738;2023-02-15T09:04:36;2.40;93.00
7606;DHT22;3844;53.360;9.738;2023-02-15T09:06:38;2.60;92.70
7606;DHT22;3844;53.360;9.738;2023-02-15T09:08:39;2.70;92.90
7606;DHT22;3844;53.360;9.738;2023-02-15T09:10:40;2.80;94.20
7606;DHT22;3844;53.360;9.738;2023-02-15T09:12:40;2.80;94.10
7606;DHT22;3844;53.360;9.738;2023-02-15T09:14:41;2.80;94.00
7606;DHT22;3844;53.360;9.738;2023-02-15T09:16:44;2.80;93.80
7606;DHT22;3844;53.360;9.738;2023-02-15T09:18:47;2.90;93.60
7606;DHT22;3844;53.360;9.738;2023-02-15T09:20:48;3.00;93.40
7606;DHT22;3844;53.360;9.738;2023-02-15T09:22:51;3.10;93.30
7606;DHT22;3844;53.360;9.738;2023-02-15T09:24:52;3.10;93.30
7606;DHT22;3844;53.360;9.738;2023-02-15T09:26:53;3.30;93.10
7606;DHT22;3844;53.360;9.738;2023-02-15T09:28:56;3.50;92.00
7606;DHT22;3844;53.360;9.738;2023-02-15T09:30:57;3.80;92.00
7606;DHT22;3844;53.360;9.738;2023-02-15T09:32:57;4.00;91.40
7606;DHT22;3844;53.360;9.738;2023-02-15T09:34:58;4.30;92.30
7606;DHT22;3844;53.360;9.738;2023-02-15T09:43:42;4.70;94.30
7606;DHT22;3844;53.360;9.738;2023-02-15T09:46:23;4.80;93.30
7606;DHT22;3844;53.360;9.738;2023-02-15T09:48:51;5.00;93.60
7606;DHT22;3844;53.360;9.738;2023-02-15T09:51:10;5.30;93.80
7606;DHT22;3844;53.360;9.738;2023-02-15T09:56:29;5.40;95.70
7606;DHT22;3844;53.360;9.738;2023-02-15T10:05:39;6.10;95.60
7606;DHT22;3844;53.360;9.738;2023-02-15T10:10:48;6.80;95.40
7606;DHT22;3844;53.360;9.738;2023-02-15T10:15:36;6.80;95.70
7606;DHT22;3844;53.360;9.738;2023-02-15T10:24:36;7.60;95.70
7606;DHT22;3844;53.360;9.738;2023-02-15T10:26:43;7.90;95.70
7606;DHT22;3844;53.360;9.738;2023-02-15T10:29:02;8.20;95.70
7606;DHT22;3844;53.360;9.738;2023-02-15T10:31:22;8.40;95.70
7606;DHT22;3844;53.360;9.738;2023-02-15T10:33:27;8.50;95.70
7606;DHT22;3844;53.360;9.738;2023-02-15T10:35:43;8.70;95.70
7606;DHT22;3844;53.360;9.738;2023-02-15T10:38:14;8.70;95.70
7606;DHT22;3844;53.360;9.738;2023-02-15T10:40:32;8.70;95.70
7606;DHT22;3844;53.360;9.738;2023-02-15T10:45:28;9.10;95.70
7606;DHT22;3844;53.360;9.738;2023-02-15T10:47:46;9.20;95.70
7606;DHT22;3844;53.360;9.738;2023-02-15T10:54:28;9.50;95.70
7606;DHT22;3844;53.360;9.738;2023-02-15T11:01:34;10.00;95.70
7606;DHT22;3844;53.360;9.738;2023-02-15T11:06:15;10.60;95.70
7606;DHT22;3844;53.360;9.738;2023-02-15T11:08:18;10.80;94.10
7606;DHT22;3844;53.360;9.738;2023-02-15T11:10:39;11.10;88.00
7606;DHT22;3844;53.360;9.738;2023-02-15T11:12:43;11.10;87.60
7606;DHT22;3844;53.360;9.738;2023-02-15T11:16:59;11.30;85.80
7606;DHT22;3844;53.360;9.738;2023-02-15T11:19:13;11.50;82.90
7606;DHT22;3844;53.360;9.738;2023-02-15T11:21:22;11.60;82.40
7606;DHT22;3844;53.360;9.738;2023-02-15T11:23:25;11.70;83.70
7606;DHT22;3844;53.360;9.738;2023-02-15T11:25:35;11.80;79.40
7606;DHT22;3844;53.360;9.738;2023-02-15T11:27:37;11.90;79.90
7606;DHT22;3844;53.360;9.738;2023-02-15T11:32:02;11.80;79.70
7606;DHT22;3844;53.360;9.738;2023-02-15T11:34:15;12.00;78.60
7606;DHT22;3844;53.360;9.738;2023-02-15T11:36:24;12.10;78.70
7606;DHT22;3844;53.360;9.738;2023-02-15T11:38:32;12.20;78.50
7606;DHT22;3844;53.360;9.738;2023-02-15T11:42:46;12.30;76.30
7606;DHT22;3844;53.360;9.738;2023-02-15T11:45:04;12.20;77.10
7606;DHT22;3844;53.360;9.738;2023-02-15T11:47:10;12.20;77.30
7606;DHT22;3844;53.360;9.738;2023-02-15T11:49:33;12.20;77.70
7606;DHT22;3844;53.360;9.738;2023-02-15T11:51:35;12.20;77.80
7606;DHT22;3844;53.360;9.738;2023-02-15T11:53:37;12.40;79.50
7606;DHT22;3844;53.360;9.738;2023-02-15T11:55:39;12.40;76.90
7606;DHT22;3844;53.360;9.738;2023-02-15T11:57:43;12.30;76.00
7606;DHT22;3844;53.360;9.738;2023-02-15T11:59:51;12.20;78.40
7606;DHT22;3844;53.360;9.738;2023-02-15T12:01:53;12.30;77.30
7606;DHT22;3844;53.360;9.738;2023-02-15T12:03:58;12.40;77.80
7606;DHT22;3844;53.360;9.738;2023-02-15T12:06:04;12.60;77.40
7606;DHT22;3844;53.360;9.738;2023-02-15T12:08:17;12.70;77.70
7606;DHT22;3844;53.360;9.738;2023-02-15T12:10:28;12.90;78.00
7606;DHT22;3844;53.360;9.738;2023-02-15T12:12:32;13.20;77.50
7606;DHT22;3844;53.360;9.738;2023-02-15T12:15:09;13.40;75.60
7606;DHT22;3844;53.360;9.738;2023-02-15T12:17:13;13.50;76.70
7606;DHT22;3844;53.360;9.738;2023-02-15T12:19:37;13.60;74.60
7606;DHT22;3844;53.360;9.738;2023-02-15T12:21:41;13.50;75.10
7606;DHT22;3844;53.360;9.738;2023-02-15T12:23:51;13.50;74.40
7606;DHT22;3844;53.360;9.738;2023-02-15T12:25:54;13.40;76.20
7606;DHT22;3844;53.360;9.738;2023-02-15T12:27:56;13.60;76.80
7606;DHT22;3844;53.360;9.738;2023-02-15T12:30:00;13.80;75.60
7606;DHT22;3844;53.360;9.738;2023-02-15T12:32:03;13.80;75.80
7606;DHT22;3844;53.360;9.738;2023-02-15T12:34:16;13.90;75.30
7606;DHT22;3844;53.360;9.738;2023-02-15T12:36:23;13.90;75.40
7606;DHT22;3844;53.360;9.738;2023-02-15T12:38:25;13.90;74.90
7606;DHT22;3844;53.360;9.738;2023-02-15T12:40:29;13.90;74.90
7606;DHT22;3844;53.360;9.738;2023-02-15T12:42:42;13.60;73.40
7606;DHT22;3844;53.360;9.738;2023-02-15T12:45:04;13.30;73.90
7606;DHT22;3844;53.360;9.738;2023-02-15T12:47:19;12.80;75.70
7606;DHT22;3844;53.360;9.738;2023-02-15T12:49:21;12.70;76.00
7606;DHT22;3844;53.360;9.738;2023-02-15T12:51:21;12.50;75.50
7606;DHT22;3844;53.360;9.738;2023-02-15T12:53:31;12.50;77.50
7606;DHT22;3844;53.360;9.738;2023-02-15T12:55:32;12.60;76.20
7606;DHT22;3844;53.360;9.738;2023-02-15T12:57:33;12.70;77.00
7606;DHT22;3844;53.360;9.738;2023-02-15T12:59:34;12.90;76.70
7606;DHT22;3844;53.360;9.738;2023-02-15T13:01:35;13.10;76.80
7606;DHT22;3844;53.360;9.738;2023-02-15T13:03:40;13.20;76.80
7606;DHT22;3844;53.360;9.738;2023-02-15T13:05:53;13.20;75.40
7606;DHT22;3844;53.360;9.738;2023-02-15T13:07:57;13.20;76.20
7606;DHT22;3844;53.360;9.738;2023-02-15T13:09:59;13.20;76.30
7606;DHT22;3844;53.360;9.738;2023-02-15T13:12:16;13.20;76.60
7606;DHT22;3844;53.360;9.738;2023-02-15T13:14:31;13.10;76.40
7606;DHT22;3844;53.360;9.738;2023-02-15T13:16:35;13.20;77.50
7606;DHT22;3844;53.360;9.738;2023-02-15T13:18:39;13.30;76.90
7606;DHT22;3844;53.360;9.738;2023-02-15T13:20:42;13.30;74.90
7606;DHT22;3844;53.360;9.738;2023-02-15T13:22:46;13.40;75.90
7606;DHT22;3844;53.360;9.738;2023-02-15T13:24:57;13.50;75.50
7606;DHT22;3844;53.360;9.738;2023-02-15T13:26:59;13.40;74.60
7606;DHT22;3844;53.360;9.738;2023-02-15T13:29:08;13.20;74.50
7606;DHT22;3844;53.360;9.738;2023-02-15T13:31:15;12.90;76.20
7606;DHT22;3844;53.360;9.738;2023-02-15T13:33:36;12.70;77.60
7606;DHT22;3844;53.360;9.738;2023-02-15T13:35:46;12.60;77.30
7606;DHT22;3844;53.360;9.738;2023-02-15T13:40:21;12.20;78.00
7606;DHT22;3844;53.360;9.738;2023-02-15T13:45:36;12.10;80.30
7606;DHT22;3844;53.360;9.738;2023-02-15T14:16:03;14.50;74.90
7606;DHT22;3844;53.360;9.738;2023-02-15T14:23:19;14.30;73.90
7606;DHT22;3844;53.360;9.738;2023-02-15T14:25:34;13.90;74.60
7606;DHT22;3844;53.360;9.738;2023-02-15T14:27:48;13.50;74.80
7606;DHT22;3844;53.360;9.738;2023-02-15T14:29:54;13.10;75.30
7606;DHT22;3844;53.360;9.738;2023-02-15T14:32:00;12.70;77.70
7606;DHT22;3844;53.360;9.738;2023-02-15T14:34:04;12.40;77.80
7606;DHT22;3844;53.360;9.738;2023-02-15T14:36:07;12.10;78.20
7606;DHT22;3844;53.360;9.738;2023-02-15T14:45:41;11.30;81.50
7606;DHT22;3844;53.360;9.738;2023-02-15T14:48:15;11.20;82.40
7606;DHT22;3844;53.360;9.738;2023-02-15T14:52:30;11.00;83.00
7606;DHT22;3844;53.360;9.738;2023-02-15T14:56:34;10.90;84.00
7606;DHT22;3844;53.360;9.738;2023-02-15T15:01:04;10.80;84.20
7606;DHT22;3844;53.360;9.738;2023-02-15T15:03:26;10.70;84.20
7606;DHT22;3844;53.360;9.738;2023-02-15T15:05:34;10.70;84.50
7606;DHT22;3844;53.360;9.738;2023-02-15T15:09:38;10.60;85.10
7606;DHT22;3844;53.360;9.738;2023-02-15T15:11:49;10.60;85.30
7606;DHT22;3844;53.360;9.738;2023-02-15T15:13:57;10.50;86.00
7606;DHT22;3844;53.360;9.738;2023-02-15T15:20:48;10.30;87.00
7606;DHT22;3844;53.360;9.738;2023-02-15T15:22:49;10.20;87.40
7606;DHT22;3844;53.360;9.738;2023-02-15T15:24:55;10.20;87.60
7606;DHT22;3844;53.360;9.738;2023-02-15T15:29:42;10.00;88.20
7606;DHT22;3844;53.360;9.738;2023-02-15T15:31:50;9.90;88.70
7606;DHT22;3844;53.360;9.738;2023-02-15T15:36:48;9.70;89.90
7606;DHT22;3844;53.360;9.738;2023-02-15T15:40:17;9.60;90.90
7606;DHT22;3844;53.360;9.738;2023-02-15T15:48:32;9.10;94.10
7606;DHT22;3844;53.360;9.738;2023-02-15T15:50:34;9.00;94.20
7606;DHT22;3844;53.360;9.738;2023-02-15T15:52:41;9.00;94.80
7606;DHT22;3844;53.360;9.738;2023-02-15T15:54:46;8.90;95.30
7606;DHT22;3844;53.360;9.738;2023-02-15T15:56:58;8.90;95.30
7606;DHT22;3844;53.360;9.738;2023-02-15T15:59:05;8.70;95.70
7606;DHT22;3844;53.360;9.738;2023-02-15T16:01:10;8.60;95.70
7606;DHT22;3844;53.360;9.738;2023-02-15T16:03:35;8.50;95.70
7606;DHT22;3844;53.360;9.738;2023-02-15T16:05:40;8.40;95.70
7606;DHT22;3844;53.360;9.738;2023-02-15T16:07:41;8.30;95.70
7606;DHT22;3844;53.360;9.738;2023-02-15T16:09:54;8.20;95.70
7606;DHT22;3844;53.360;9.738;2023-02-15T16:11:57;8.10;95.70
7606;DHT22;3844;53.360;9.738;2023-02-15T16:14:02;8.00;95.70
7606;DHT22;3844;53.360;9.738;2023-02-15T16:16:03;7.90;95.70
7606;DHT22;3844;53.360;9.738;2023-02-15T16:18:04;7.80;95.70
7606;DHT22;3844;53.360;9.738;2023-02-15T16:20:17;7.70;95.70
7606;DHT22;3844;53.360;9.738;2023-02-15T16:22:24;7.60;95.70
7606;DHT22;3844;53.360;9.738;2023-02-15T16:29:32;7.30;95.70
7606;DHT22;3844;53.360;9.738;2023-02-15T16:31:33;7.20;95.70
7606;DHT22;3844;53.360;9.738;2023-02-15T16:33:36;7.20;95.70
7606;DHT22;3844;53.360;9.738;2023-02-15T16:35:39;7.10;95.70
7606;DHT22;3844;53.360;9.738;2023-02-15T16:39:42;6.90;95.70
7606;DHT22;3844;53.360;9.738;2023-02-15T16:41:44;6.90;95.70
7606;DHT22;3844;53.360;9.738;2023-02-15T16:43:49;6.80;95.70
7606;DHT22;3844;53.360;9.738;2023-02-15T16:45:50;6.70;95.70
7606;DHT22;3844;53.360;9.738;2023-02-15T16:47:56;6.60;95.70
7606;DHT22;3844;53.360;9.738;2023-02-15T16:50:01;6.50;95.70
7606;DHT22;3844;53.360;9.738;2023-02-15T16:52:04;6.50;95.70
7606;DHT22;3844;53.360;9.738;2023-02-15T16:54:08;6.40;95.70
7606;DHT22;3844;53.360;9.738;2023-02-15T16:56:14;6.30;95.70
7606;DHT22;3844;53.360;9.738;2023-02-15T16:58:17;6.30;95.70
7606;DHT22;3844;53.360;9.738;2023-02-15T17:00:20;6.20;95.70
7606;DHT22;3844;53.360;9.738;2023-02-15T17:02:28;6.20;95.70
7606;DHT22;3844;53.360;9.738;2023-02-15T17:04:31;6.10;95.70
7606;DHT22;3844;53.360;9.738;2023-02-15T17:06:32;6.00;95.70
7606;DHT22;3844;53.360;9.738;2023-02-15T17:08:34;6.00;95.70
7606;DHT22;3844;53.360;9.738;2023-02-15T17:10:42;5.90;95.70
7606;DHT22;3844;53.360;9.738;2023-02-15T17:12:54;5.90;95.70